sensor_id;sensor_type;location;lat;lon;timestamp;temperature;humidity
73576;DHT22;61859;49.204;8.140;2024-02-16T00:00:23;10.20;98.00
73576;DHT22;61859;49.204;8.140;2024-02-16T00:02:49;10.20;98.20
73576;DHT22;61859;49.204;8.140;2024-02-16T00:05:14;10.10;98.50
73576;DHT22;61859;49.204;8.140;2024-02-16T00:07:40;10.00;98.50
73576;DHT22;61859;49.204;8.140;2024-02-16T00:10:07;10.00;98.70
73576;DHT22;61859;49.204;8.140;2024-02-16T00:12:33;10.00;98.80
73576;DHT22;61859;49.204;8.140;2024-02-16T00:15:00;10.00;98.70
73576;DHT22;61859;49.204;8.140;2024-02-16T00:17:25;9.90;98.70
73576;DHT22;61859;49.204;8.140;2024-02-16T00:19:54;9.90;98.70
73576;DHT22;61859;49.204;8.140;2024-02-16T00:22:20;10.00;98.90
73576;DHT22;61859;49.204;8.140;2024-02-16T00:24:46;10.00;98.90
73576;DHT22;61859;49.204;8.140;2024-02-16T00:27:11;10.10;98.90
73576;DHT22;61859;49.204;8.140;2024-02-16T00:29:37;10.10;98.90
73576;DHT22;61859;49.204;8.140;2024-02-16T00:32:06;10.00;98.90
73576;DHT22;61859;49.204;8.140;2024-02-16T00:34:32;10.10;98.70
73576;DHT22;61859;49.204;8.140;2024-02-16T00:36:58;10.10;98.70
73576;DHT22;61859;49.204;8.140;2024-02-16T00:39:23;10.20;98.70
73576;DHT22;61859;49.204;8.140;2024-02-16T00:41:50;10.10;98.40
73576;DHT22;61859;49.204;8.140;2024-02-16T00:44:15;10.20;98.40
73576;DHT22;61859;49.204;8.140;2024-02-16T00:46:41;10.10;98.30
73576;DHT22;61859;49.204;8.140;2024-02-16T00:49:07;10.10;98.20
73576;DHT22;61859;49.204;8.140;2024-02-16T00:51:38;10.10;98.20
73576;DHT22;61859;49.204;8.140;2024-02-16T00:54:04;10.10;98.20
73576;DHT22;61859;49.204;8.140;2024-02-16T00:56:31;10.20;98.40
73576;DHT22;61859;49.204;8.140;2024-02-16T00:58:57;10.10;98.40
73576;DHT22;61859;49.204;8.140;2024-02-16T01:01:23;10.10;98.30
73576;DHT22;61859;49.204;8.140;2024-02-16T01:03:50;10.10;98.40
73576;DHT22;61859;49.204;8.140;2024-02-16T01:06:17;10.10;98.50
73576;DHT22;61859;49.204;8.140;2024-02-16T01:08:42;10.10;98.50
73576;DHT22;61859;49.204;8.140;2024-02-16T01:11:08;10.20;98.40
73576;DHT22;61859;49.204;8.140;2024-02-16T01:13:33;10.10;98.70
73576;DHT22;61859;49.204;8.140;2024-02-16T01:15:59;10.10;98.60
73576;DHT22;61859;49.204;8.140;2024-02-16T01:18:27;10.20;98.70
73576;DHT22;61859;49.204;8.140;2024-02-16T01:20:53;10.10;98.80
73576;DHT22;61859;49.204;8.140;2024-02-16T01:23:19;10.10;98.70
73576;DHT22;61859;49.204;8.140;2024-02-16T01:25:44;10.10;98.80
73576;DHT22;61859;49.204;8.140;2024-02-16T01:28:11;10.20;98.80
73576;DHT22;61859;49.204;8.140;2024-02-16T01:30:38;10.20;98.90
73576;DHT22;61859;49.204;8.140;2024-02-16T01:33:04;10.10;99.00
73576;DHT22;61859;49.204;8.140;2024-02-16T01:35:30;10.20;99.00
73576;DHT22;61859;49.204;8.140;2024-02-16T01:37:56;10.20;99.00
73576;DHT22;61859;49.204;8.140;2024-02-16T01:40:21;10.10;99.10
73576;DHT22;61859;49.204;8.140;2024-02-16T01:42:47;10.10;99.10
73576;DHT22;61859;49.204;8.140;2024-02-16T01:45:13;10.10;99.10
73576;DHT22;61859;49.204;8.140;2024-02-16T01:47:40;10.10;99.10
73576;DHT22;61859;49.204;8.140;2024-02-16T01:50:07;10.10;99.00
73576;DHT22;61859;49.204;8.140;2024-02-16T01:52:34;10.00;99.10
73576;DHT22;61859;49.204;8.140;2024-02-16T01:55:05;10.10;99.10
73576;DHT22;61859;49.204;8.140;2024-02-16T01:57:34;10.00;99.20
73576;DHT22;61859;49.204;8.140;2024-02-16T01:59:59;10.00;99.40
73576;DHT22;61859;49.204;8.140;2024-02-16T02:02:26;10.00;99.30
73576;DHT22;61859;49.204;8.140;2024-02-16T02:04:51;10.00;99.30
73576;DHT22;61859;49.204;8.140;2024-02-16T02:07:17;9.80;99.40
73576;DHT22;61859;49.204;8.140;2024-02-16T02:09:43;9.90;99.50
73576;DHT22;61859;49.204;8.140;2024-02-16T02:12:09;9.90;99.50
73576;DHT22;61859;49.204;8.140;2024-02-16T02:14:35;9.80;99.40
73576;DHT22;61859;49.204;8.140;2024-02-16T02:17:02;9.80;99.50
73576;DHT22;61859;49.204;8.140;2024-02-16T02:19:29;9.70;99.60
73576;DHT22;61859;49.204;8.140;2024-02-16T02:21:55;9.80;99.90
73576;DHT22;61859;49.204;8.140;2024-02-16T02:24:21;9.80;99.80
73576;DHT22;61859;49.204;8.140;2024-02-16T02:26:46;9.80;99.60
73576;DHT22;61859;49.204;8.140;2024-02-16T02:29:12;9.80;99.80
73576;DHT22;61859;49.204;8.140;2024-02-16T02:31:37;9.70;99.90
73576;DHT22;61859;49.204;8.140;2024-02-16T02:34:03;9.70;99.90
73576;DHT22;61859;49.204;8.140;2024-02-16T02:36:31;9.70;99.90
73576;DHT22;61859;49.204;8.140;2024-02-16T02:38:56;9.70;99.90
73576;DHT22;61859;49.204;8.140;2024-02-16T02:41:23;9.60;99.90
73576;DHT22;61859;49.204;8.140;2024-02-16T02:43:48;9.60;99.90
73576;DHT22;61859;49.204;8.140;2024-02-16T02:46:15;9.50;99.90
73576;DHT22;61859;49.204;8.140;2024-02-16T02:48:42;9.40;99.90
73576;DHT22;61859;49.204;8.140;2024-02-16T02:51:08;9.50;99.90
73576;DHT22;61859;49.204;8.140;2024-02-16T02:53:35;9.60;99.90
73576;DHT22;61859;49.204;8.140;2024-02-16T02:56:01;9.60;99.90
73576;DHT22;61859;49.204;8.140;2024-02-16T02:58:27;9.40;99.90
73576;DHT22;61859;49.204;8.140;2024-02-16T03:00:53;9.30;99.90
73576;DHT22;61859;49.204;8.140;2024-02-16T03:03:19;9.40;99.90
73576;DHT22;61859;49.204;8.140;2024-02-16T03:05:45;9.40;99.90
73576;DHT22;61859;49.204;8.140;2024-02-16T03:08:11;9.30;99.90
73576;DHT22;61859;49.204;8.140;2024-02-16T03:10:37;9.40;99.90
73576;DHT22;61859;49.204;8.140;2024-02-16T03:13:03;9.40;99.90
73576;DHT22;61859;49.204;8.140;2024-02-16T03:15:29;9.40;99.90
73576;DHT22;61859;49.204;8.140;2024-02-16T03:17:55;9.40;99.90
73576;DHT22;61859;49.204;8.140;2024-02-16T03:20:20;9.30;99.90
73576;DHT22;61859;49.204;8.140;2024-02-16T03:22:47;9.30;99.90
73576;DHT22;61859;49.204;8.140;2024-02-16T03:25:12;9.20;99.90
73576;DHT22;61859;49.204;8.140;2024-02-16T03:27:38;9.20;99.90
73576;DHT22;61859;49.204;8.140;2024-02-16T03:30:04;9.20;99.90
73576;DHT22;61859;49.204;8.140;2024-02-16T03:32:31;9.00;99.90
73576;DHT22;61859;49.204;8.140;2024-02-16T03:34:57;9.00;99.90
73576;DHT22;61859;49.204;8.140;2024-02-16T03:37:24;9.00;99.90
73576;DHT22;61859;49.204;8.140;2024-02-16T03:39:50;8.90;99.90
73576;DHT22;61859;49.204;8.140;2024-02-16T03:42:16;8.80;99.90
73576;DHT22;61859;49.204;8.140;2024-02-16T03:44:43;8.80;99.90
73576;DHT22;61859;49.204;8.140;2024-02-16T03:47:09;8.80;99.90
73576;DHT22;61859;49.204;8.140;2024-02-16T03:49:35;8.80;99.90
73576;DHT22;61859;49.204;8.140;2024-02-16T03:52:01;8.80;99.90
73576;DHT22;61859;49.204;8.140;2024-02-16T03:54:26;8.70;99.90
73576;DHT22;61859;49.204;8.140;2024-02-16T03:56:55;8.70;99.90
73576;DHT22;61859;49.204;8.140;2024-02-16T03:59:20;8.90;99.90
73576;DHT22;61859;49.204;8.140;2024-02-16T04:01:46;8.90;99.90
73576;DHT22;61859;49.204;8.140;2024-02-16T04:04:12;8.90;99.90
73576;DHT22;61859;49.204;8.140;2024-02-16T04:06:38;8.90;99.90
73576;DHT22;61859;49.204;8.140;2024-02-16T04:09:04;8.90;99.90
73576;DHT22;61859;49.204;8.140;2024-02-16T04:11:34;8.90;99.90
73576;DHT22;61859;49.204;8.140;2024-02-16T04:14:00;8.80;99.90
73576;DHT22;61859;49.204;8.140;2024-02-16T04:16:26;8.80;99.90
73576;DHT22;61859;49.204;8.140;2024-02-16T04:18:52;8.80;99.90
73576;DHT22;61859;49.204;8.140;2024-02-16T04:21:17;8.80;99.90
73576;DHT22;61859;49.204;8.140;2024-02-16T04:23:44;8.80;99.90
73576;DHT22;61859;49.204;8.140;2024-02-16T04:26:09;8.90;99.90
73576;DHT22;61859;49.204;8.140;2024-02-16T04:28:35;8.90;99.90
73576;DHT22;61859;49.204;8.140;2024-02-16T04:31:01;8.80;99.90
73576;DHT22;61859;49.204;8.140;2024-02-16T04:33:26;8.90;99.90
73576;DHT22;61859;49.204;8.140;2024-02-16T04:35:52;9.00;99.90
73576;DHT22;61859;49.204;8.140;2024-02-16T04:38:18;9.10;99.90
73576;DHT22;61859;49.204;8.140;2024-02-16T04:40:43;9.20;99.90
73576;DHT22;61859;49.204;8.140;2024-02-16T04:43:09;9.20;99.90
73576;DHT22;61859;49.204;8.140;2024-02-16T04:45:35;9.30;99.90
73576;DHT22;61859;49.204;8.140;2024-02-16T04:48:07;9.40;99.90
73576;DHT22;61859;49.204;8.140;2024-02-16T04:50:34;9.40;99.90
73576;DHT22;61859;49.204;8.140;2024-02-16T04:53:00;9.50;99.90
73576;DHT22;61859;49.204;8.140;2024-02-16T04:55:29;9.40;99.90
73576;DHT22;61859;49.204;8.140;2024-02-16T04:57:55;9.40;99.90
73576;DHT22;61859;49.204;8.140;2024-02-16T05:00:21;9.50;99.90
73576;DHT22;61859;49.204;8.140;2024-02-16T05:02:47;9.50;99.90
73576;DHT22;61859;49.204;8.140;2024-02-16T05:05:13;9.50;99.90
73576;DHT22;61859;49.204;8.140;2024-02-16T05:07:38;9.60;99.90
73576;DHT22;61859;49.204;8.140;2024-02-16T05:10:08;9.50;99.90
73576;DHT22;61859;49.204;8.140;2024-02-16T05:12:34;9.60;99.90
73576;DHT22;61859;49.204;8.140;2024-02-16T05:15:00;9.70;99.90
73576;DHT22;61859;49.204;8.140;2024-02-16T05:17:25;9.70;99.90
73576;DHT22;61859;49.204;8.140;2024-02-16T05:19:51;9.70;99.90
73576;DHT22;61859;49.204;8.140;2024-02-16T05:22:19;9.70;99.90
73576;DHT22;61859;49.204;8.140;2024-02-16T05:24:44;9.70;99.90
73576;DHT22;61859;49.204;8.140;2024-02-16T05:27:10;9.70;99.90
73576;DHT22;61859;49.204;8.140;2024-02-16T05:29:36;9.70;99.90
73576;DHT22;61859;49.204;8.140;2024-02-16T05:32:01;9.60;99.90
73576;DHT22;61859;49.204;8.140;2024-02-16T05:34:27;9.70;99.90
73576;DHT22;61859;49.204;8.140;2024-02-16T05:36:57;9.60;99.90
73576;DHT22;61859;49.204;8.140;2024-02-16T05:39:23;9.60;99.90
73576;DHT22;61859;49.204;8.140;2024-02-16T05:41:53;9.60;99.90
73576;DHT22;61859;49.204;8.140;2024-02-16T05:44:19;9.40;99.90
73576;DHT22;61859;49.204;8.140;2024-02-16T05:46:45;9.40;99.90
73576;DHT22;61859;49.204;8.140;2024-02-16T05:49:11;9.40;99.90
73576;DHT22;61859;49.204;8.140;2024-02-16T05:51:37;9.40;99.90
73576;DHT22;61859;49.204;8.140;2024-02-16T05:54:04;9.40;99.90
73576;DHT22;61859;49.204;8.140;2024-02-16T05:56:30;9.40;99.90
73576;DHT22;61859;49.204;8.140;2024-02-16T05:58:59;9.30;99.90
73576;DHT22;61859;49.204;8.140;2024-02-16T06:01:25;9.30;99.90
73576;DHT22;61859;49.204;8.140;2024-02-16T06:03:52;9.20;99.90
73576;DHT22;61859;49.204;8.140;2024-02-16T06:06:17;9.30;99.90
73576;DHT22;61859;49.204;8.140;2024-02-16T06:08:43;9.30;99.90
73576;DHT22;61859;49.204;8.140;2024-02-16T06:11:08;9.20;99.90
73576;DHT22;61859;49.204;8.140;2024-02-16T06:13:34;9.30;99.90
73576;DHT22;61859;49.204;8.140;2024-02-16T06:15:59;9.20;99.90
73576;DHT22;61859;49.204;8.140;2024-02-16T06:18:25;9.30;99.90
73576;DHT22;61859;49.204;8.140;2024-02-16T06:20:55;9.40;99.90
73576;DHT22;61859;49.204;8.140;2024-02-16T06:23:20;9.40;99.90
73576;DHT22;61859;49.204;8.140;2024-02-16T06:25:46;9.50;99.90
73576;DHT22;61859;49.204;8.140;2024-02-16T06:28:11;9.50;99.90
73576;DHT22;61859;49.204;8.140;2024-02-16T06:30:37;9.40;99.90
73576;DHT22;61859;49.204;8.140;2024-02-16T06:33:02;9.60;99.90
73576;DHT22;61859;49.204;8.140;2024-02-16T06:35:29;9.60;99.80
73576;DHT22;61859;49.204;8.140;2024-02-16T06:37:55;9.70;99.70
73576;DHT22;61859;49.204;8.140;2024-02-16T06:40:20;9.70;99.60
73576;DHT22;61859;49.204;8.140;2024-02-16T06:42:46;9.70;99.50
73576;DHT22;61859;49.204;8.140;2024-02-16T06:45:12;9.80;99.00
73576;DHT22;61859;49.204;8.140;2024-02-16T06:47:37;9.80;98.80
73576;DHT22;61859;49.204;8.140;2024-02-16T06:50:03;9.90;98.30
73576;DHT22;61859;49.204;8.140;2024-02-16T06:52:28;9.90;98.00
73576;DHT22;61859;49.204;8.140;2024-02-16T06:54:54;10.00;97.90
73576;DHT22;61859;49.204;8.140;2024-02-16T06:57:20;10.00;97.80
73576;DHT22;61859;49.204;8.140;2024-02-16T06:59:46;10.10;97.20
73576;DHT22;61859;49.204;8.140;2024-02-16T07:02:11;10.10;96.90
73576;DHT22;61859;49.204;8.140;2024-02-16T07:04:40;10.10;96.60
73576;DHT22;61859;49.204;8.140;2024-02-16T07:07:05;10.20;96.50
73576;DHT22;61859;49.204;8.140;2024-02-16T07:09:32;10.20;96.60
73576;DHT22;61859;49.204;8.140;2024-02-16T07:11:57;10.30;96.80
73576;DHT22;61859;49.204;8.140;2024-02-16T07:14:24;10.20;96.70
73576;DHT22;61859;49.204;8.140;2024-02-16T07:16:49;10.30;96.80
73576;DHT22;61859;49.204;8.140;2024-02-16T07:19:15;10.40;96.80
73576;DHT22;61859;49.204;8.140;2024-02-16T07:21:41;10.60;96.20
73576;DHT22;61859;49.204;8.140;2024-02-16T07:24:06;10.70;95.50
73576;DHT22;61859;49.204;8.140;2024-02-16T07:26:32;10.80;95.30
73576;DHT22;61859;49.204;8.140;2024-02-16T07:28:58;10.70;95.20
73576;DHT22;61859;49.204;8.140;2024-02-16T07:31:24;10.70;95.50
73576;DHT22;61859;49.204;8.140;2024-02-16T07:33:49;10.70;95.50
73576;DHT22;61859;49.204;8.140;2024-02-16T07:36:15;10.70;95.60
73576;DHT22;61859;49.204;8.140;2024-02-16T07:38:43;10.80;95.60
73576;DHT22;61859;49.204;8.140;2024-02-16T07:41:09;10.90;95.30
73576;DHT22;61859;49.204;8.140;2024-02-16T07:43:35;10.90;95.00
73576;DHT22;61859;49.204;8.140;2024-02-16T07:46:00;10.90;95.00
73576;DHT22;61859;49.204;8.140;2024-02-16T07:48:26;11.00;94.80
73576;DHT22;61859;49.204;8.140;2024-02-16T07:50:51;11.10;95.00
73576;DHT22;61859;49.204;8.140;2024-02-16T07:53:17;11.10;94.40
73576;DHT22;61859;49.204;8.140;2024-02-16T07:55:43;11.10;94.00
73576;DHT22;61859;49.204;8.140;2024-02-16T07:58:08;11.20;93.10
73576;DHT22;61859;49.204;8.140;2024-02-16T08:00:34;11.30;92.60
73576;DHT22;61859;49.204;8.140;2024-02-16T08:03:00;11.40;92.40
73576;DHT22;61859;49.204;8.140;2024-02-16T08:05:26;11.40;92.10
73576;DHT22;61859;49.204;8.140;2024-02-16T08:07:52;11.50;91.80
73576;DHT22;61859;49.204;8.140;2024-02-16T08:10:21;11.60;90.90
73576;DHT22;61859;49.204;8.140;2024-02-16T08:12:47;11.70;90.90
73576;DHT22;61859;49.204;8.140;2024-02-16T08:15:12;11.80;91.00
73576;DHT22;61859;49.204;8.140;2024-02-16T08:17:39;12.00;90.30
73576;DHT22;61859;49.204;8.140;2024-02-16T08:20:05;12.00;89.80
73576;DHT22;61859;49.204;8.140;2024-02-16T08:22:31;12.20;89.50
73576;DHT22;61859;49.204;8.140;2024-02-16T08:24:58;12.40;88.80
73576;DHT22;61859;49.204;8.140;2024-02-16T08:27:23;12.50;88.10
73576;DHT22;61859;49.204;8.140;2024-02-16T08:29:50;12.60;87.30
73576;DHT22;61859;49.204;8.140;2024-02-16T08:32:17;12.70;86.40
73576;DHT22;61859;49.204;8.140;2024-02-16T08:34:43;12.90;86.30
73576;DHT22;61859;49.204;8.140;2024-02-16T08:37:09;12.90;85.50
73576;DHT22;61859;49.204;8.140;2024-02-16T08:39:38;12.90;85.50
73576;DHT22;61859;49.204;8.140;2024-02-16T08:42:03;13.10;85.60
73576;DHT22;61859;49.204;8.140;2024-02-16T08:44:29;13.10;85.50
73576;DHT22;61859;49.204;8.140;2024-02-16T08:46:54;13.20;85.00
73576;DHT22;61859;49.204;8.140;2024-02-16T08:49:20;13.30;84.50
73576;DHT22;61859;49.204;8.140;2024-02-16T08:51:46;13.50;84.20
73576;DHT22;61859;49.204;8.140;2024-02-16T08:54:12;13.60;83.30
73576;DHT22;61859;49.204;8.140;2024-02-16T08:56:38;13.70;83.30
73576;DHT22;61859;49.204;8.140;2024-02-16T08:59:05;13.90;82.50
73576;DHT22;61859;49.204;8.140;2024-02-16T09:01:38;14.10;82.40
73576;DHT22;61859;49.204;8.140;2024-02-16T09:04:04;14.30;82.30
73576;DHT22;61859;49.204;8.140;2024-02-16T09:06:30;14.60;81.60
73576;DHT22;61859;49.204;8.140;2024-02-16T09:08:57;14.80;81.10
73576;DHT22;61859;49.204;8.140;2024-02-16T09:11:23;15.00;80.00
73576;DHT22;61859;49.204;8.140;2024-02-16T09:13:49;15.20;79.60
73576;DHT22;61859;49.204;8.140;2024-02-16T09:16:14;15.50;78.00
73576;DHT22;61859;49.204;8.140;2024-02-16T09:18:40;15.70;77.30
73576;DHT22;61859;49.204;8.140;2024-02-16T09:21:06;15.90;76.90
73576;DHT22;61859;49.204;8.140;2024-02-16T09:23:33;16.00;75.50
73576;DHT22;61859;49.204;8.140;2024-02-16T09:25:59;16.20;74.80
73576;DHT22;61859;49.204;8.140;2024-02-16T09:28:25;16.50;73.90
73576;DHT22;61859;49.204;8.140;2024-02-16T09:30:51;17.20;72.30
73576;DHT22;61859;49.204;8.140;2024-02-16T09:33:17;18.20;68.20
73576;DHT22;61859;49.204;8.140;2024-02-16T09:35:43;18.60;65.60
73576;DHT22;61859;49.204;8.140;2024-02-16T09:38:08;18.50;66.00
73576;DHT22;61859;49.204;8.140;2024-02-16T09:40:37;18.00;67.40
73576;DHT22;61859;49.204;8.140;2024-02-16T09:43:02;17.80;68.70
73576;DHT22;61859;49.204;8.140;2024-02-16T09:45:29;17.60;68.90
73576;DHT22;61859;49.204;8.140;2024-02-16T09:47:55;17.40;68.00
73576;DHT22;61859;49.204;8.140;2024-02-16T09:50:22;17.20;69.00
73576;DHT22;61859;49.204;8.140;2024-02-16T09:52:50;17.20;69.50
73576;DHT22;61859;49.204;8.140;2024-02-16T09:55:16;17.10;69.60
73576;DHT22;61859;49.204;8.140;2024-02-16T09:57:43;17.00;69.30
73576;DHT22;61859;49.204;8.140;2024-02-16T10:00:10;17.10;69.40
73576;DHT22;61859;49.204;8.140;2024-02-16T10:02:43;17.00;69.10
73576;DHT22;61859;49.204;8.140;2024-02-16T10:05:16;17.00;69.20
73576;DHT22;61859;49.204;8.140;2024-02-16T10:07:42;16.90;69.40
73576;DHT22;61859;49.204;8.140;2024-02-16T10:10:22;16.90;69.90
73576;DHT22;61859;49.204;8.140;2024-02-16T10:12:47;17.00;69.20
73576;DHT22;61859;49.204;8.140;2024-02-16T10:15:20;17.00;69.80
73576;DHT22;61859;49.204;8.140;2024-02-16T10:17:56;17.10;70.30
73576;DHT22;61859;49.204;8.140;2024-02-16T10:20:22;17.20;69.70
73576;DHT22;61859;49.204;8.140;2024-02-16T10:22:47;17.30;70.20
73576;DHT22;61859;49.204;8.140;2024-02-16T10:25:13;17.40;69.70
73576;DHT22;61859;49.204;8.140;2024-02-16T10:27:39;17.50;70.30
73576;DHT22;61859;49.204;8.140;2024-02-16T10:30:07;17.60;69.40
73576;DHT22;61859;49.204;8.140;2024-02-16T10:32:37;17.80;68.70
73576;DHT22;61859;49.204;8.140;2024-02-16T10:35:06;17.90;68.00
73576;DHT22;61859;49.204;8.140;2024-02-16T10:37:34;17.90;68.10
73576;DHT22;61859;49.204;8.140;2024-02-16T10:40:00;17.70;68.20
73576;DHT22;61859;49.204;8.140;2024-02-16T10:42:29;17.80;68.00
73576;DHT22;61859;49.204;8.140;2024-02-16T10:44:56;17.80;67.70
73576;DHT22;61859;49.204;8.140;2024-02-16T10:47:22;17.80;67.40
73576;DHT22;61859;49.204;8.140;2024-02-16T10:49:47;17.60;66.70
73576;DHT22;61859;49.204;8.140;2024-02-16T10:52:14;17.50;67.20
73576;DHT22;61859;49.204;8.140;2024-02-16T10:54:41;17.50;66.80
73576;DHT22;61859;49.204;8.140;2024-02-16T10:57:08;17.50;66.60
73576;DHT22;61859;49.204;8.140;2024-02-16T10:59:44;17.80;66.10
73576;DHT22;61859;49.204;8.140;2024-02-16T11:02:11;17.80;66.30
73576;DHT22;61859;49.204;8.140;2024-02-16T11:04:38;17.80;66.00
73576;DHT22;61859;49.204;8.140;2024-02-16T11:07:10;17.80;65.60
73576;DHT22;61859;49.204;8.140;2024-02-16T11:09:39;17.90;65.50
73576;DHT22;61859;49.204;8.140;2024-02-16T11:12:06;18.50;64.30
73576;DHT22;61859;49.204;8.140;2024-02-16T11:14:44;19.20;62.60
73576;DHT22;61859;49.204;8.140;2024-02-16T11:17:15;19.40;61.30
73576;DHT22;61859;49.204;8.140;2024-02-16T11:19:44;19.70;61.90
73576;DHT22;61859;49.204;8.140;2024-02-16T11:22:11;19.90;61.60
73576;DHT22;61859;49.204;8.140;2024-02-16T11:24:43;20.10;60.70
73576;DHT22;61859;49.204;8.140;2024-02-16T11:27:10;20.00;59.90
73576;DHT22;61859;49.204;8.140;2024-02-16T11:29:37;19.80;61.60
73576;DHT22;61859;49.204;8.140;2024-02-16T11:32:04;19.60;62.20
73576;DHT22;61859;49.204;8.140;2024-02-16T11:34:32;20.00;61.80
73576;DHT22;61859;49.204;8.140;2024-02-16T11:36:58;20.20;60.50
73576;DHT22;61859;49.204;8.140;2024-02-16T11:39:25;20.10;60.80
73576;DHT22;61859;49.204;8.140;2024-02-16T11:42:08;19.40;62.00
73576;DHT22;61859;49.204;8.140;2024-02-16T11:44:38;18.80;63.80
73576;DHT22;61859;49.204;8.140;2024-02-16T11:47:06;18.60;64.80
73576;DHT22;61859;49.204;8.140;2024-02-16T11:49:34;18.40;65.60
73576;DHT22;61859;49.204;8.140;2024-02-16T11:52:00;18.30;65.20
73576;DHT22;61859;49.204;8.140;2024-02-16T11:54:25;18.40;65.50
73576;DHT22;61859;49.204;8.140;2024-02-16T11:56:52;18.60;65.40
73576;DHT22;61859;49.204;8.140;2024-02-16T11:59:18;18.60;65.10
73576;DHT22;61859;49.204;8.140;2024-02-16T12:04:26;18.50;65.60
73576;DHT22;61859;49.204;8.140;2024-02-16T12:09:18;18.70;65.80
73576;DHT22;61859;49.204;8.140;2024-02-16T12:11:45;18.50;65.80
73576;DHT22;61859;49.204;8.140;2024-02-16T12:14:11;18.20;66.20
73576;DHT22;61859;49.204;8.140;2024-02-16T12:16:37;18.10;67.20
73576;DHT22;61859;49.204;8.140;2024-02-16T12:19:06;17.70;68.60
73576;DHT22;61859;49.204;8.140;2024-02-16T12:21:31;17.70;68.80
73576;DHT22;61859;49.204;8.140;2024-02-16T12:23:57;17.80;68.60
73576;DHT22;61859;49.204;8.140;2024-02-16T12:26:23;18.00;68.70
73576;DHT22;61859;49.204;8.140;2024-02-16T12:28:49;18.00;68.20
73576;DHT22;61859;49.204;8.140;2024-02-16T12:31:23;18.10;68.30
73576;DHT22;61859;49.204;8.140;2024-02-16T12:33:52;18.20;67.50
73576;DHT22;61859;49.204;8.140;2024-02-16T12:36:18;18.40;66.40
73576;DHT22;61859;49.204;8.140;2024-02-16T12:38:43;18.70;66.80
73576;DHT22;61859;49.204;8.140;2024-02-16T12:41:09;18.90;65.20
73576;DHT22;61859;49.204;8.140;2024-02-16T12:43:35;19.20;65.00
73576;DHT22;61859;49.204;8.140;2024-02-16T12:46:00;19.40;64.10
73576;DHT22;61859;49.204;8.140;2024-02-16T12:48:29;19.60;63.80
73576;DHT22;61859;49.204;8.140;2024-02-16T12:50:55;19.50;63.10
73576;DHT22;61859;49.204;8.140;2024-02-16T12:53:20;19.20;63.80
73576;DHT22;61859;49.204;8.140;2024-02-16T12:55:50;19.00;65.20
73576;DHT22;61859;49.204;8.140;2024-02-16T12:58:15;18.80;65.70
73576;DHT22;61859;49.204;8.140;2024-02-16T13:00:41;18.70;65.80
73576;DHT22;61859;49.204;8.140;2024-02-16T13:03:07;18.40;66.30
73576;DHT22;61859;49.204;8.140;2024-02-16T13:05:33;18.10;67.70
73576;DHT22;61859;49.204;8.140;2024-02-16T13:07:59;17.60;68.90
73576;DHT22;61859;49.204;8.140;2024-02-16T13:10:24;17.50;69.40
73576;DHT22;61859;49.204;8.140;2024-02-16T13:12:50;17.60;70.60
73576;DHT22;61859;49.204;8.140;2024-02-16T13:15:15;17.50;71.20
73576;DHT22;61859;49.204;8.140;2024-02-16T13:17:41;17.30;72.80
73576;DHT22;61859;49.204;8.140;2024-02-16T13:20:07;17.20;72.90
73576;DHT22;61859;49.204;8.140;2024-02-16T13:22:38;17.00;74.20
73576;DHT22;61859;49.204;8.140;2024-02-16T13:25:05;16.90;75.20
73576;DHT22;61859;49.204;8.140;2024-02-16T13:27:31;16.90;74.90
73576;DHT22;61859;49.204;8.140;2024-02-16T13:29:57;16.80;75.30
73576;DHT22;61859;49.204;8.140;2024-02-16T13:32:23;16.90;74.00
73576;DHT22;61859;49.204;8.140;2024-02-16T13:34:49;16.80;74.00
73576;DHT22;61859;49.204;8.140;2024-02-16T13:37:14;16.70;73.90
73576;DHT22;61859;49.204;8.140;2024-02-16T13:39:40;16.80;74.10
73576;DHT22;61859;49.204;8.140;2024-02-16T13:42:05;16.90;73.80
73576;DHT22;61859;49.204;8.140;2024-02-16T13:44:31;16.80;73.80
73576;DHT22;61859;49.204;8.140;2024-02-16T13:46:57;16.80;73.70
73576;DHT22;61859;49.204;8.140;2024-02-16T13:49:22;16.90;73.40
73576;DHT22;61859;49.204;8.140;2024-02-16T13:51:48;17.00;73.20
73576;DHT22;61859;49.204;8.140;2024-02-16T13:54:14;16.90;74.10
73576;DHT22;61859;49.204;8.140;2024-02-16T13:56:39;17.00;73.80
73576;DHT22;61859;49.204;8.140;2024-02-16T13:59:05;17.10;73.60
73576;DHT22;61859;49.204;8.140;2024-02-16T14:01:33;17.10;73.20
73576;DHT22;61859;49.204;8.140;2024-02-16T14:03:59;17.00;72.80
73576;DHT22;61859;49.204;8.140;2024-02-16T14:06:24;17.00;72.70
73576;DHT22;61859;49.204;8.140;2024-02-16T14:08:50;17.00;73.10
73576;DHT22;61859;49.204;8.140;2024-02-16T14:11:18;17.00;72.70
73576;DHT22;61859;49.204;8.140;2024-02-16T14:13:43;16.80;73.30
73576;DHT22;61859;49.204;8.140;2024-02-16T14:16:09;16.80;73.60
73576;DHT22;61859;49.204;8.140;2024-02-16T14:18:36;16.70;73.90
73576;DHT22;61859;49.204;8.140;2024-02-16T14:21:02;16.70;73.70
73576;DHT22;61859;49.204;8.140;2024-02-16T14:23:29;16.70;73.60
73576;DHT22;61859;49.204;8.140;2024-02-16T14:25:55;16.60;73.70
73576;DHT22;61859;49.204;8.140;2024-02-16T14:28:21;16.70;74.30
73576;DHT22;61859;49.204;8.140;2024-02-16T14:30:46;16.70;74.10
73576;DHT22;61859;49.204;8.140;2024-02-16T14:33:12;16.50;74.50
73576;DHT22;61859;49.204;8.140;2024-02-16T14:35:37;16.50;75.00
73576;DHT22;61859;49.204;8.140;2024-02-16T14:38:04;16.50;75.00
73576;DHT22;61859;49.204;8.140;2024-02-16T14:40:32;16.30;75.30
73576;DHT22;61859;49.204;8.140;2024-02-16T14:42:58;16.30;75.50
73576;DHT22;61859;49.204;8.140;2024-02-16T14:45:24;16.40;76.20
73576;DHT22;61859;49.204;8.140;2024-02-16T14:47:50;16.30;76.30
73576;DHT22;61859;49.204;8.140;2024-02-16T14:50:16;16.30;76.40
73576;DHT22;61859;49.204;8.140;2024-02-16T14:52:43;16.30;76.70
73576;DHT22;61859;49.204;8.140;2024-02-16T14:55:09;16.20;77.00
73576;DHT22;61859;49.204;8.140;2024-02-16T14:57:41;16.20;76.70
73576;DHT22;61859;49.204;8.140;2024-02-16T15:00:08;16.10;77.10
73576;DHT22;61859;49.204;8.140;2024-02-16T15:02:34;16.00;79.00
73576;DHT22;61859;49.204;8.140;2024-02-16T15:05:01;15.90;79.80
73576;DHT22;61859;49.204;8.140;2024-02-16T15:07:27;15.70;80.90
73576;DHT22;61859;49.204;8.140;2024-02-16T15:09:53;15.60;81.70
73576;DHT22;61859;49.204;8.140;2024-02-16T15:12:18;15.40;82.30
73576;DHT22;61859;49.204;8.140;2024-02-16T15:14:48;15.40;83.70
73576;DHT22;61859;49.204;8.140;2024-02-16T15:17:14;15.20;84.50
73576;DHT22;61859;49.204;8.140;2024-02-16T15:19:40;15.10;85.10
73576;DHT22;61859;49.204;8.140;2024-02-16T15:22:05;15.00;85.60
73576;DHT22;61859;49.204;8.140;2024-02-16T15:24:31;14.90;86.10
73576;DHT22;61859;49.204;8.140;2024-02-16T15:26:57;14.70;86.50
73576;DHT22;61859;49.204;8.140;2024-02-16T15:29:22;14.80;87.10
73576;DHT22;61859;49.204;8.140;2024-02-16T15:31:48;14.60;87.90
73576;DHT22;61859;49.204;8.140;2024-02-16T15:34:14;14.60;88.70